sensor_id;sensor_type;location;lat;lon;timestamp;pressure;altitude;pressure_sealevel;temperature;humidity
59063;BME280;44851;45.648;9.004;2023-02-24T00:01:20;98909.34;;;10.97;64.80
59063;BME280;44851;45.648;9.004;2023-02-24T00:04:05;98905.50;;;11.01;65.51
59063;BME280;44851;45.648;9.004;2023-02-24T00:06:40;98905.25;;;10.94;65.61
59063;BME280;44851;45.648;9.004;2023-02-24T00:09:11;98902.50;;;10.96;65.01
59063;BME280;44851;45.648;9.004;2023-02-24T00:11:41;98899.00;;;10.87;64.71
59063;BME280;44851;45.648;9.004;2023-02-24T00:14:09;98889.00;;;10.82;65.52
59063;BME280;44851;45.648;9.004;2023-02-24T00:16:35;98891.88;;;10.79;65.82
59063;BME280;44851;45.648;9.004;2023-02-24T00:19:04;98888.22;;;10.72;66.05
59063;BME280;44851;45.648;9.004;2023-02-24T00:21:32;98889.00;;;10.82;65.77
59063;BME280;44851;45.648;9.004;2023-02-24T00:23:57;98882.22;;;10.90;65.44
59063;BME280;44851;45.648;9.004;2023-02-24T00:26:24;98883.28;;;10.97;65.27
59063;BME280;44851;45.648;9.004;2023-02-24T00:28:49;98879.00;;;10.78;64.85
59063;BME280;44851;45.648;9.004;2023-02-24T00:31:17;98869.97;;;10.72;65.58
59063;BME280;44851;45.648;9.004;2023-02-24T00:33:44;98868.34;;;10.52;65.49
59063;BME280;44851;45.648;9.004;2023-02-24T00:36:12;98870.13;;;10.61;65.46
59063;BME280;44851;45.648;9.004;2023-02-24T00:38:39;98864.31;;;10.67;66.12
59063;BME280;44851;45.648;9.004;2023-02-24T00:41:17;98872.03;;;10.59;65.27
59063;BME280;44851;45.648;9.004;2023-02-24T00:43:45;98876.56;;;10.57;65.57
59063;BME280;44851;45.648;9.004;2023-02-24T00:46:17;98867.28;;;10.45;65.59
59063;BME280;44851;45.648;9.004;2023-02-24T00:48:44;98866.16;;;10.47;66.11
59063;BME280;44851;45.648;9.004;2023-02-24T00:51:14;98867.19;;;10.64;65.05
59063;BME280;44851;45.648;9.004;2023-02-24T00:53:52;98871.19;;;10.58;65.76
59063;BME280;44851;45.648;9.004;2023-02-24T00:56:22;98868.75;;;10.57;65.63
59063;BME280;44851;45.648;9.004;2023-02-24T00:58:48;98876.56;;;10.57;65.71
59063;BME280;44851;45.648;9.004;2023-02-24T01:01:15;98876.16;;;10.61;66.02
59063;BME280;44851;45.648;9.004;2023-02-24T01:03:45;98872.84;;;10.59;65.35
59063;BME280;44851;45.648;9.004;2023-02-24T01:06:13;98876.56;;;10.57;65.31
59063;BME280;44851;45.648;9.004;2023-02-24T01:08:40;98871.38;;;10.47;66.06
59063;BME280;44851;45.648;9.004;2023-02-24T01:11:18;98875.50;;;10.50;65.83
59063;BME280;44851;45.648;9.004;2023-02-24T01:14:05;98871.94;;;10.51;66.04
59063;BME280;44851;45.648;9.004;2023-02-24T01:16:32;98871.78;;;10.52;65.82
59063;BME280;44851;45.648;9.004;2023-02-24T01:18:58;98860.41;;;10.44;66.43
59063;BME280;44851;45.648;9.004;2023-02-24T01:21:24;98865.34;;;10.47;65.94
59063;BME280;44851;45.648;9.004;2023-02-24T01:23:49;98862.34;;;10.42;66.67
59063;BME280;44851;45.648;9.004;2023-02-24T01:26:16;98853.84;;;10.40;66.56
59063;BME280;44851;45.648;9.004;2023-02-24T01:28:43;98862.06;;;10.45;66.47
59063;BME280;44851;45.648;9.004;2023-02-24T01:31:11;98853.97;;;10.38;66.20
59063;BME280;44851;45.648;9.004;2023-02-24T01:33:37;98851.13;;;10.31;66.80
59063;BME280;44851;45.648;9.004;2023-02-24T01:36:13;98854.09;;;10.46;66.23
59063;BME280;44851;45.648;9.004;2023-02-24T01:38:39;98847.50;;;10.52;66.67
59063;BME280;44851;45.648;9.004;2023-02-24T01:41:08;98849.44;;;10.50;66.65
59063;BME280;44851;45.648;9.004;2023-02-24T01:43:58;98841.50;;;10.42;65.01
59063;BME280;44851;45.648;9.004;2023-02-24T01:46:35;98839.88;;;10.41;66.54
59063;BME280;44851;45.648;9.004;2023-02-24T01:49:06;98835.31;;;10.43;66.75
59063;BME280;44851;45.648;9.004;2023-02-24T01:51:40;98833.00;;;10.40;65.60
59063;BME280;44851;45.648;9.004;2023-02-24T01:54:10;98836.28;;;10.42;66.80
59063;BME280;44851;45.648;9.004;2023-02-24T01:56:37;98834.06;;;10.47;66.51
59063;BME280;44851;45.648;9.004;2023-02-24T01:59:05;98829.50;;;10.21;66.86
59063;BME280;44851;45.648;9.004;2023-02-24T02:01:31;98829.44;;;10.41;66.71
59063;BME280;44851;45.648;9.004;2023-02-24T02:04:11;98829.25;;;10.52;66.66
59063;BME280;44851;45.648;9.004;2023-02-24T02:06:38;98829.69;;;10.47;67.19
59063;BME280;44851;45.648;9.004;2023-02-24T02:09:04;98827.81;;;10.40;67.23
59063;BME280;44851;45.648;9.004;2023-02-24T02:11:32;98828.06;;;10.37;66.59
59063;BME280;44851;45.648;9.004;2023-02-24T02:13:57;98831.06;;;10.42;66.42
59063;BME280;44851;45.648;9.004;2023-02-24T02:16:44;98821.91;;;10.38;65.79
59063;BME280;44851;45.648;9.004;2023-02-24T02:25:17;98807.25;;;10.27;66.35
59063;BME280;44851;45.648;9.004;2023-02-24T02:28:09;98806.44;;;10.26;67.38
59063;BME280;44851;45.648;9.004;2023-02-24T02:30:46;98816.03;;;10.35;67.33
59063;BME280;44851;45.648;9.004;2023-02-24T02:43:55;98807.97;;;10.19;66.65
59063;BME280;44851;45.648;9.004;2023-02-24T02:46:57;98809.66;;;10.01;65.99
59063;BME280;44851;45.648;9.004;2023-02-24T02:49:35;98808.25;;;10.16;67.22
59063;BME280;44851;45.648;9.004;2023-02-24T02:52:09;98806.28;;;10.28;66.78
59063;BME280;44851;45.648;9.004;2023-02-24T02:54:42;98808.66;;;10.21;67.13
59063;BME280;44851;45.648;9.004;2023-02-24T02:57:28;98812.50;;;10.17;65.84
59063;BME280;44851;45.648;9.004;2023-02-24T03:00:11;98809.88;;;10.17;67.05
59063;BME280;44851;45.648;9.004;2023-02-24T03:02:42;98809.38;;;10.14;68.00
59063;BME280;44851;45.648;9.004;2023-02-24T03:05:10;98811.50;;;10.28;67.44
59063;BME280;44851;45.648;9.004;2023-02-24T03:07:44;98807.81;;;10.30;66.72
59063;BME280;44851;45.648;9.004;2023-02-24T03:10:15;98814.66;;;10.31;67.06
59063;BME280;44851;45.648;9.004;2023-02-24T03:12:51;98815.22;;;10.25;66.62
59063;BME280;44851;45.648;9.004;2023-02-24T03:15:19;98813.88;;;10.12;67.08
59063;BME280;44851;45.648;9.004;2023-02-24T03:17:50;98804.16;;;10.14;67.33
59063;BME280;44851;45.648;9.004;2023-02-24T03:20:24;98813.22;;;10.09;67.46
59063;BME280;44851;45.648;9.004;2023-02-24T03:23:08;98807.69;;;10.22;66.32
59063;BME280;44851;45.648;9.004;2023-02-24T03:25:40;98813.25;;;10.37;67.02
59063;BME280;44851;45.648;9.004;2023-02-24T03:28:28;98810.50;;;10.39;66.63
59063;BME280;44851;45.648;9.004;2023-02-24T03:31:01;98804.22;;;10.31;67.51
59063;BME280;44851;45.648;9.004;2023-02-24T03:33:44;98811.97;;;10.23;66.59
59063;BME280;44851;45.648;9.004;2023-02-24T03:36:11;98807.50;;;10.33;67.47
59063;BME280;44851;45.648;9.004;2023-02-24T03:38:41;98814.38;;;10.34;67.79
59063;BME280;44851;45.648;9.004;2023-02-24T03:41:08;98810.00;;;10.35;67.17
59063;BME280;44851;45.648;9.004;2023-02-24T03:43:38;98809.84;;;10.37;67.26
59063;BME280;44851;45.648;9.004;2023-02-24T03:46:05;98810.00;;;10.35;67.46
59063;BME280;44851;45.648;9.004;2023-02-24T03:48:31;98805.59;;;10.35;67.40
59063;BME280;44851;45.648;9.004;2023-02-24T03:50:59;98809.47;;;10.22;67.11
59063;BME280;44851;45.648;9.004;2023-02-24T03:53:39;98802.78;;;10.19;68.02
59063;BME280;44851;45.648;9.004;2023-02-24T04:04:25;98787.81;;;10.21;67.76
59063;BME280;44851;45.648;9.004;2023-02-24T04:07:01;98791.38;;;10.20;68.51
59063;BME280;44851;45.648;9.004;2023-02-24T04:12:08;98790.81;;;10.26;67.97
59063;BME280;44851;45.648;9.004;2023-02-24T04:14:54;98783.84;;;10.17;68.31
59063;BME280;44851;45.648;9.004;2023-02-24T04:17:29;98778.59;;;10.27;68.89
59063;BME280;44851;45.648;9.004;2023-02-24T04:19:59;98773.94;;;10.30;69.13
59063;BME280;44851;45.648;9.004;2023-02-24T04:22:34;98776.81;;;10.27;69.16
59063;BME280;44851;45.648;9.004;2023-02-24T04:25:00;98774.53;;;10.24;69.75
59063;BME280;44851;45.648;9.004;2023-02-24T04:27:30;98771.91;;;10.24;70.00
59063;BME280;44851;45.648;9.004;2023-02-24T04:29:58;98776.72;;;10.19;69.65
59063;BME280;44851;45.648;9.004;2023-02-24T04:32:27;98767.81;;;10.12;69.29
59063;BME280;44851;45.648;9.004;2023-02-24T04:35:01;98765.63;;;10.17;69.74
59063;BME280;44851;45.648;9.004;2023-02-24T04:37:26;98767.13;;;10.20;69.91
59063;BME280;44851;45.648;9.004;2023-02-24T04:39:58;98771.22;;;10.22;70.47
59063;BME280;44851;45.648;9.004;2023-02-24T04:42:24;98771.91;;;10.24;69.99
59063;BME280;44851;45.648;9.004;2023-02-24T04:44:49;98768.63;;;10.22;70.14
59063;BME280;44851;45.648;9.004;2023-02-24T04:47:15;98763.78;;;10.27;69.63
59063;BME280;44851;45.648;9.004;2023-02-24T04:49:40;98763.56;;;10.21;69.63
59063;BME280;44851;45.648;9.004;2023-02-24T04:52:07;98761.19;;;10.27;70.24
59063;BME280;44851;45.648;9.004;2023-02-24T04:54:33;98757.66;;;10.28;69.85
59063;BME280;44851;45.648;9.004;2023-02-24T04:56:59;98754.38;;;10.17;69.95
59063;BME280;44851;45.648;9.004;2023-02-24T04:59:24;98749.06;;;10.18;69.49
59063;BME280;44851;45.648;9.004;2023-02-24T05:01:51;98749.06;;;10.08;70.34
59063;BME280;44851;45.648;9.004;2023-02-24T05:04:25;98741.13;;;10.10;70.33
59063;BME280;44851;45.648;9.004;2023-02-24T05:06:50;98734.66;;;10.14;69.91
59063;BME280;44851;45.648;9.004;2023-02-24T05:09:16;98731.53;;;10.01;70.11
59063;BME280;44851;45.648;9.004;2023-02-24T05:11:45;98739.13;;;9.85;70.30
59063;BME280;44851;45.648;9.004;2023-02-24T05:14:13;98727.06;;;9.93;71.17
59063;BME280;44851;45.648;9.004;2023-02-24T05:16:46;98730.31;;;10.05;70.00
59063;BME280;44851;45.648;9.004;2023-02-24T05:19:14;98723.19;;;10.07;70.11
59063;BME280;44851;45.648;9.004;2023-02-24T05:21:59;98725.41;;;10.02;70.72
59063;BME280;44851;45.648;9.004;2023-02-24T05:24:27;98721.81;;;10.03;70.06
59063;BME280;44851;45.648;9.004;2023-02-24T05:26:54;98738.53;;;10.00;70.22
59063;BME280;44851;45.648;9.004;2023-02-24T05:29:30;98730.59;;;10.02;69.97
59063;BME280;44851;45.648;9.004;2023-02-24T05:31:56;98736.34;;;10.05;70.36
59063;BME280;44851;45.648;9.004;2023-02-24T05:34:28;98734.56;;;9.96;70.05
59063;BME280;44851;45.648;9.004;2023-02-24T05:36:55;98729.94;;;9.90;69.91
59063;BME280;44851;45.648;9.004;2023-02-24T05:39:22;98731.72;;;9.90;70.98
59063;BME280;44851;45.648;9.004;2023-02-24T05:41:49;98722.19;;;9.80;70.06
59063;BME280;44851;45.648;9.004;2023-02-24T05:44:17;98727.38;;;9.80;70.31
59063;BME280;44851;45.648;9.004;2023-02-24T05:46:49;98718.88;;;9.78;71.11
59063;BME280;44851;45.648;9.004;2023-02-24T05:49:20;98716.66;;;9.83;70.56
59063;BME280;44851;45.648;9.004;2023-02-24T05:51:52;98718.59;;;9.91;70.85
59063;BME280;44851;45.648;9.004;2023-02-24T05:54:20;98719.41;;;9.92;70.30
59063;BME280;44851;45.648;9.004;2023-02-24T05:56:47;98716.00;;;9.81;70.88
59063;BME280;44851;45.648;9.004;2023-02-24T05:59:14;98715.84;;;9.93;70.83
59063;BME280;44851;45.648;9.004;2023-02-24T06:01:45;98713.91;;;9.95;71.07
59063;BME280;44851;45.648;9.004;2023-02-24T06:04:11;98711.28;;;9.95;70.84
59063;BME280;44851;45.648;9.004;2023-02-24T06:06:46;98718.13;;;9.96;70.19
59063;BME280;44851;45.648;9.004;2023-02-24T06:09:17;98715.00;;;9.92;70.54
59063;BME280;44851;45.648;9.004;2023-02-24T06:11:43;98719.41;;;9.92;70.86
59063;BME280;44851;45.648;9.004;2023-02-24T06:14:12;98709.66;;;9.94;70.80
59063;BME280;44851;45.648;9.004;2023-02-24T06:16:40;98717.75;;;9.91;70.88
59063;BME280;44851;45.648;9.004;2023-02-24T06:19:07;98719.94;;;9.86;70.96
59063;BME280;44851;45.648;9.004;2023-02-24T06:21:34;98720.50;;;9.89;71.01
59063;BME280;44851;45.648;9.004;2023-02-24T06:24:00;98723.41;;;9.86;71.16
59063;BME280;44851;45.648;9.004;2023-02-24T06:26:26;98719.41;;;9.92;70.67
59063;BME280;44851;45.648;9.004;2023-02-24T06:28:57;98721.59;;;9.87;69.97
59063;BME280;44851;45.648;9.004;2023-02-24T06:31:23;98724.34;;;9.85;70.75
59063;BME280;44851;45.648;9.004;2023-02-24T06:33:49;98728.72;;;9.85;71.20
59063;BME280;44851;45.648;9.004;2023-02-24T06:36:17;98735.03;;;9.92;70.89
59063;BME280;44851;45.648;9.004;2023-02-24T06:38:43;98734.06;;;9.93;70.88
59063;BME280;44851;45.648;9.004;2023-02-24T06:41:08;98734.50;;;9.78;70.80
59063;BME280;44851;45.648;9.004;2023-02-24T06:43:38;98733.28;;;9.63;70.39
59063;BME280;44851;45.648;9.004;2023-02-24T06:46:07;98744.63;;;9.81;71.17
59063;BME280;44851;45.648;9.004;2023-02-24T06:48:33;98747.91;;;9.83;71.42
59063;BME280;44851;45.648;9.004;2023-02-24T06:51:06;98750.34;;;9.85;70.77
59063;BME280;44851;45.648;9.004;2023-02-24T06:53:33;98750.06;;;9.98;71.12
59063;BME280;44851;45.648;9.004;2023-02-24T06:56:08;98756.91;;;9.99;70.75
59063;BME280;44851;45.648;9.004;2023-02-24T06:58:40;98756.34;;;10.05;71.19
59063;BME280;44851;45.648;9.004;2023-02-24T07:01:12;98751.44;;;10.02;71.42
59063;BME280;44851;45.648;9.004;2023-02-24T07:03:39;98745.69;;;9.98;70.84
59063;BME280;44851;45.648;9.004;2023-02-24T07:06:08;98753.19;;;10.01;71.02
59063;BME280;44851;45.648;9.004;2023-02-24T07:08:49;98756.66;;;10.02;71.47
59063;BME280;44851;45.648;9.004;2023-02-24T07:11:16;98751.69;;;10.08;71.38
59063;BME280;44851;45.648;9.004;2023-02-24T07:13:44;98749.78;;;10.01;71.82
59063;BME280;44851;45.648;9.004;2023-02-24T07:16:12;98743.47;;;10.03;71.20
59063;BME280;44851;45.648;9.004;2023-02-24T07:18:40;98749.38;;;9.96;71.44
59063;BME280;44851;45.648;9.004;2023-02-24T07:21:11;98744.97;;;10.06;71.82
59063;BME280;44851;45.648;9.004;2023-02-24T07:23:41;98737.63;;;9.92;71.43
59063;BME280;44851;45.648;9.004;2023-02-24T07:26:11;98741.56;;;9.96;71.97
59063;BME280;44851;45.648;9.004;2023-02-24T07:28:38;98741.16;;;9.91;71.93
59063;BME280;44851;45.648;9.004;2023-02-24T07:31:15;98747.88;;;10.03;70.51
59063;BME280;44851;45.648;9.004;2023-02-24T07:33:42;98747.56;;;10.06;71.85
59063;BME280;44851;45.648;9.004;2023-02-24T07:36:11;98748.13;;;10.09;71.33
59063;BME280;44851;45.648;9.004;2023-02-24T07:38:40;98751.94;;;10.05;71.13
59063;BME280;44851;45.648;9.004;2023-02-24T07:41:07;98759.34;;;10.10;71.10
59063;BME280;44851;45.648;9.004;2023-02-24T07:43:37;98744.28;;;10.04;71.74
59063;BME280;44851;45.648;9.004;2023-02-24T07:46:15;98755.66;;;10.13;70.27
59063;BME280;44851;45.648;9.004;2023-02-24T07:48:42;98745.50;;;10.09;71.51
59063;BME280;44851;45.648;9.004;2023-02-24T07:51:08;98749.47;;;10.14;71.30
59063;BME280;44851;45.648;9.004;2023-02-24T07:53:36;98741.78;;;10.12;71.32
59063;BME280;44851;45.648;9.004;2023-02-24T07:56:06;98743.16;;;10.16;71.08
59063;BME280;44851;45.648;9.004;2023-02-24T07:58:41;98739.91;;;10.04;70.67
59063;BME280;44851;45.648;9.004;2023-02-24T08:01:11;98743.06;;;10.08;70.63
59063;BME280;44851;45.648;9.004;2023-02-24T08:03:50;98750.56;;;10.11;70.79
59063;BME280;44851;45.648;9.004;2023-02-24T08:06:20;98745.75;;;10.16;71.40
59063;BME280;44851;45.648;9.004;2023-02-24T08:08:57;98740.53;;;10.16;71.56
59063;BME280;44851;45.648;9.004;2023-02-24T08:11:27;98743.44;;;10.13;70.57
59063;BME280;44851;45.648;9.004;2023-02-24T08:14:00;98746.00;;;10.23;70.42
59063;BME280;44851;45.648;9.004;2023-02-24T08:16:30;98745.63;;;10.18;70.89
59063;BME280;44851;45.648;9.004;2023-02-24T08:19:11;98744.78;;;10.17;70.79
59063;BME280;44851;45.648;9.004;2023-02-24T08:21:41;98732.94;;;10.32;71.32
59063;BME280;44851;45.648;9.004;2023-02-24T08:24:19;98726.91;;;10.32;71.52
59063;BME280;44851;45.648;9.004;2023-02-24T08:26:50;98735.53;;;10.32;71.57
59063;BME280;44851;45.648;9.004;2023-02-24T08:29:35;98735.53;;;10.32;71.04
59063;BME280;44851;45.648;9.004;2023-02-24T08:32:08;98732.72;;;10.44;70.80
59063;BME280;44851;45.648;9.004;2023-02-24T08:34:37;98729.34;;;10.33;70.73
59063;BME280;44851;45.648;9.004;2023-02-24T08:37:03;98729.66;;;10.30;70.78
59063;BME280;44851;45.648;9.004;2023-02-24T08:39:29;98731.97;;;10.33;71.58
59063;BME280;44851;45.648;9.004;2023-02-24T08:41:58;98731.09;;;10.43;72.33
59063;BME280;44851;45.648;9.004;2023-02-24T08:44:24;98733.03;;;10.41;72.14
59063;BME280;44851;45.648;9.004;2023-02-24T08:46:52;98734.78;;;10.50;72.16
59063;BME280;44851;45.648;9.004;2023-02-24T08:49:18;98732.19;;;10.50;71.68
59063;BME280;44851;45.648;9.004;2023-02-24T08:51:47;98729.56;;;10.50;72.43
59063;BME280;44851;45.648;9.004;2023-02-24T08:54:19;98727.53;;;10.44;71.26
59063;BME280;44851;45.648;9.004;2023-02-24T08:56:52;98731.25;;;10.41;72.23
59063;BME280;44851;45.648;9.004;2023-02-24T08:59:22;98731.69;;;10.37;73.06
59063;BME280;44851;45.648;9.004;2023-02-24T09:02:08;98724.09;;;10.43;72.16
59063;BME280;44851;45.648;9.004;2023-02-24T09:05:05;98718.78;;;10.45;72.59
59063;BME280;44851;45.648;9.004;2023-02-24T09:07:36;98715.38;;;10.34;72.17
59063;BME280;44851;45.648;9.004;2023-02-24T09:10:05;98724.66;;;10.47;70.86
59063;BME280;44851;45.648;9.004;2023-02-24T09:12:37;98724.38;;;10.50;71.68
59063;BME280;44851;45.648;9.004;2023-02-24T09:15:07;98718.78;;;10.45;72.23
59063;BME280;44851;45.648;9.004;2023-02-24T09:17:34;98722.03;;;10.47;72.06
59063;BME280;44851;45.648;9.004;2023-02-24T09:20:18;98728.94;;;10.66;71.40
59063;BME280;44851;45.648;9.004;2023-02-24T09:23:02;98718.84;;;10.53;72.67
59063;BME280;44851;45.648;9.004;2023-02-24T09:25:30;98726.38;;;10.56;72.05
59063;BME280;44851;45.648;9.004;2023-02-24T09:28:15;98718.13;;;10.60;72.10
59063;BME280;44851;45.648;9.004;2023-02-24T09:36:02;98718.25;;;10.59;71.44
59063;BME280;44851;45.648;9.004;2023-02-24T09:38:49;98711.72;;;10.55;70.09
59063;BME280;44851;45.648;9.004;2023-02-24T09:41:28;98717.94;;;10.72;71.46
59063;BME280;44851;45.648;9.004;2023-02-24T09:44:15;98719.88;;;10.60;71.77
59063;BME280;44851;45.648;9.004;2023-02-24T09:46:48;98714.22;;;10.74;72.37
59063;BME280;44851;45.648;9.004;2023-02-24T09:49:23;98710.03;;;10.81;72.47
59063;BME280;44851;45.648;9.004;2023-02-24T09:51:51;98714.09;;;10.94;72.20
59063;BME280;44851;45.648;9.004;2023-02-24T09:54:29;98705.00;;;10.98;71.56
59063;BME280;44851;45.648;9.004;2023-02-24T10:07:32;98700.97;;;11.03;69.76
59063;BME280;44851;45.648;9.004;2023-02-24T10:12:46;98695.97;;;11.10;69.78
59063;BME280;44851;45.648;9.004;2023-02-24T10:15:18;98698.88;;;11.07;70.13
59063;BME280;44851;45.648;9.004;2023-02-24T10:17:51;98697.69;;;11.19;69.68
59063;BME280;44851;45.648;9.004;2023-02-24T10:20:21;98692.16;;;11.22;69.76
59063;BME280;44851;45.648;9.004;2023-02-24T10:25:52;98691.00;;;11.43;69.21
59063;BME280;44851;45.648;9.004;2023-02-24T10:28:32;98692.97;;;11.41;68.55
59063;BME280;44851;45.648;9.004;2023-02-24T10:33:49;98686.78;;;11.42;69.49
59063;BME280;44851;45.648;9.004;2023-02-24T10:36:19;98686.09;;;11.39;69.96
59063;BME280;44851;45.648;9.004;2023-02-24T10:38:50;98691.09;;;11.33;68.93
59063;BME280;44851;45.648;9.004;2023-02-24T10:41:20;98685.22;;;11.31;69.71
59063;BME280;44851;45.648;9.004;2023-02-24T10:43:56;98683.13;;;11.34;69.30
59063;BME280;44851;45.648;9.004;2023-02-24T10:46:28;98677.19;;;11.50;69.10
59063;BME280;44851;45.648;9.004;2023-02-24T10:48:59;98678.13;;;11.41;68.69
59063;BME280;44851;45.648;9.004;2023-02-24T10:51:34;98668.16;;;11.36;69.02
59063;BME280;44851;45.648;9.004;2023-02-24T10:54:12;98672.09;;;11.41;68.43
59063;BME280;44851;45.648;9.004;2023-02-24T10:56:58;98665.13;;;11.49;70.75
59063;BME280;44851;45.648;9.004;2023-02-24T10:59:52;98659.09;;;11.49;68.15
59063;BME280;44851;45.648;9.004;2023-02-24T11:02:36;98655.81;;;11.47;69.83
59063;BME280;44851;45.648;9.004;2023-02-24T11:05:21;98664.50;;;11.55;70.09
59063;BME280;44851;45.648;9.004;2023-02-24T11:08:08;98657.50;;;11.56;69.46
59063;BME280;44851;45.648;9.004;2023-02-24T11:10:40;98651.31;;;11.57;68.13
59063;BME280;44851;45.648;9.004;2023-02-24T11:13:31;98648.03;;;11.55;68.72
59063;BME280;44851;45.648;9.004;2023-02-24T11:16:15;98640.16;;;11.73;69.41
59063;BME280;44851;45.648;9.004;2023-02-24T11:19:00;98631.81;;;11.77;69.01
59063;BME280;44851;45.648;9.004;2023-02-24T11:21:27;98638.19;;;12.01;69.40
59063;BME280;44851;45.648;9.004;2023-02-24T11:23:56;98630.00;;;12.04;68.18
59063;BME280;44851;45.648;9.004;2023-02-24T11:26:44;98616.84;;;11.87;66.07
59063;BME280;44851;45.648;9.004;2023-02-24T11:29:40;98610.91;;;12.03;66.74
59063;BME280;44851;45.648;9.004;2023-02-24T11:34:58;98606.38;;;12.13;67.38
59063;BME280;44851;45.648;9.004;2023-02-24T11:37:44;98608.59;;;12.51;64.65
59063;BME280;44851;45.648;9.004;2023-02-24T11:40:20;98597.31;;;12.83;64.13
59063;BME280;44851;45.648;9.004;2023-02-24T11:42:57;98585.38;;;13.05;64.60
59063;BME280;44851;45.648;9.004;2023-02-24T11:45:32;98586.38;;;13.12;63.91
59063;BME280;44851;45.648;9.004;2023-02-24T11:48:22;98579.19;;;12.81;63.17
59063;BME280;44851;45.648;9.004;2023-02-24T11:51:16;98573.13;;;12.89;63.67
59063;BME280;44851;45.648;9.004;2023-02-24T11:53:48;98566.28;;;12.72;64.58
59063;BME280;44851;45.648;9.004;2023-02-24T11:56:23;98570.03;;;12.53;63.12
59063;BME280;44851;45.648;9.004;2023-02-24T11:59:11;98560.72;;;12.50;62.58
59063;BME280;44851;45.648;9.004;2023-02-24T12:04:35;98557.78;;;12.45;64.10
59063;BME280;44851;45.648;9.004;2023-02-24T12:07:25;98536.69;;;12.38;63.55
59063;BME280;44851;45.648;9.004;2023-02-24T12:10:06;98535.53;;;12.25;63.75
59063;BME280;44851;45.648;9.004;2023-02-24T12:12:51;98524.63;;;12.37;63.74
59063;BME280;44851;45.648;9.004;2023-02-24T12:15:25;98524.25;;;12.24;63.28
59063;BME280;44851;45.648;9.004;2023-02-24T12:18:08;98522.13;;;12.20;62.80
59063;BME280;44851;45.648;9.004;2023-02-24T12:23:36;98517.06;;;12.10;62.81
59063;BME280;44851;45.648;9.004;2023-02-24T12:32:12;98500.91;;;12.23;63.38
59063;BME280;44851;45.648;9.004;2023-02-24T12:37:51;98486.22;;;12.38;62.74
59063;BME280;44851;45.648;9.004;2023-02-24T12:40:30;98489.00;;;12.44;62.85
59063;BME280;44851;45.648;9.004;2023-02-24T12:46:08;98474.97;;;12.37;63.64
59063;BME280;44851;45.648;9.004;2023-02-24T12:52:01;98467.13;;;12.37;61.96
59063;BME280;44851;45.648;9.004;2023-02-24T12:57:22;98455.19;;;12.43;62.84
59063;BME280;44851;45.648;9.004;2023-02-24T12:59:51;98452.06;;;12.39;62.64
59063;BME280;44851;45.648;9.004;2023-02-24T13:05:02;98446.38;;;12.52;62.24
59063;BME280;44851;45.648;9.004;2023-02-24T13:15:04;98432.13;;;12.47;62.24
59063;BME280;44851;45.648;9.004;2023-02-24T13:17:31;98424.28;;;12.47;61.81
59063;BME280;44851;45.648;9.004;2023-02-24T13:19:56;98420.22;;;12.52;60.09
59063;BME280;44851;45.648;9.004;2023-02-24T13:22:32;98416.13;;;12.58;59.21
59063;BME280;44851;45.648;9.004;2023-02-24T13:27:34;98408.25;;;12.66;58.85
59063;BME280;44851;45.648;9.004;2023-02-24T13:32:30;98410.19;;;12.72;57.70
59063;BME280;44851;45.648;9.004;2023-02-24T13:35:43;98404.78;;;12.90;57.93
59063;BME280;44851;45.648;9.004;2023-02-24T13:37:45;98395.34;;;13.20;59.52
59063;BME280;44851;45.648;9.004;2023-02-24T13:45:23;98394.72;;;13.72;57.59
59063;BME280;44851;45.648;9.004;2023-02-24T13:54:07;98378.75;;;13.36;56.14
59063;BME280;44851;45.648;9.004;2023-02-24T14:02:00;98367.97;;;13.31;57.56
59063;BME280;44851;45.648;9.004;2023-02-24T14:06:56;98360.31;;;13.29;57.69
59063;BME280;44851;45.648;9.004;2023-02-24T14:09:29;98357.38;;;13.24;57.30
59063;BME280;44851;45.648;9.004;2023-02-24T14:12:03;98351.97;;;13.26;57.61
59063;BME280;44851;45.648;9.004;2023-02-24T14:14:31;98349.88;;;13.21;57.06
59063;BME280;44851;45.648;9.004;2023-02-24T14:16:57;98347.94;;;13.15;57.02
59063;BME280;44851;45.648;9.004;2023-02-24T14:19:24;98355.28;;;13.19;58.41
59063;BME280;44851;45.648;9.004;2023-02-24T14:21:52;98344.28;;;13.24;57.71
59063;BME280;44851;45.648;9.004;2023-02-24T14:24:19;98351.34;;;13.24;57.02
59063;BME280;44851;45.648;9.004;2023-02-24T14:27:03;98341.75;;;13.16;56.57
59063;BME280;44851;45.648;9.004;2023-02-24T14:29:30;98337.44;;;13.23;57.11
59063;BME280;44851;45.648;9.004;2023-02-24T14:32:00;98334.31;;;13.28;57.07
59063;BME280;44851;45.648;9.004;2023-02-24T14:34:28;98333.78;;;13.32;56.42
59063;BME280;44851;45.648;9.004;2023-02-24T14:36:59;98333.41;;;13.43;56.06
59063;BME280;44851;45.648;9.004;2023-02-24T14:39:28;98326.50;;;13.42;56.48
59063;BME280;44851;45.648;9.004;2023-02-24T14:44:32;98325.94;;;13.32;55.99
59063;BME280;44851;45.648;9.004;2023-02-24T14:47:01;98320.63;;;13.40;56.33
59063;BME280;44851;45.648;9.004;2023-02-24T14:49:29;98318.72;;;13.34;58.00
59063;BME280;44851;45.648;9.004;2023-02-24T14:52:08;98306.53;;;13.27;55.74
59063;BME280;44851;45.648;9.004;2023-02-24T14:57:15;98308.34;;;13.18;56.64
59063;BME280;44851;45.648;9.004;2023-02-24T14:59:46;98300.00;;;13.23;58.23
59063;BME280;44851;45.648;9.004;2023-02-24T15:02:15;98304.06;;;13.25;58.94
59063;BME280;44851;45.648;9.004;2023-02-24T15:04:43;98293.94;;;13.22;56.67
59063;BME280;44851;45.648;9.004;2023-02-24T15:07:23;98288.56;;;13.15;56.15
59063;BME280;44851;45.648;9.004;2023-02-24T15:09:50;98283.47;;;13.22;57.56
59063;BME280;44851;45.648;9.004;2023-02-24T15:12:32;98295.91;;;13.20;57.37
59063;BME280;44851;45.648;9.004;2023-02-24T15:15:07;98282.53;;;13.15;57.62
59063;BME280;44851;45.648;9.004;2023-02-24T15:17:41;98283.66;;;13.12;58.04
59063;BME280;44851;45.648;9.004;2023-02-24T15:20:28;98275.53;;;13.07;58.09
59063;BME280;44851;45.648;9.004;2023-02-24T15:22:55;98279.59;;;13.10;57.87
59063;BME280;44851;45.648;9.004;2023-02-24T15:28:33;98262.63;;;13.06;59.67
59063;BME280;44851;45.648;9.004;2023-02-24T15:31:16;98265.25;;;13.06;59.06